Time;durP1;ratioP1;P1;durP2;ratioP2;P2;SDS_P1;SDS_P2;PMS_P1;PMS_P2;Temp;Humidity;BMP_temperature;BMP_pressure;BME280_temperature;BME280_humidity;BME280_pressure;Samples;Min_cycle;Max_cycle;Signal;HPM_P1;HPM_P2
2023/04/09 00:01:08;;;;;;;37.50;18.77;;;8.60;99.90;;;;;;5073591;28;20032;-64
2023/04/09 00:03:35;;;;;;;32.53;19.33;;;8.50;99.90;;;;;;5075205;28;20090;-64
2023/04/09 00:06:01;;;;;;;37.33;18.38;;;8.60;99.90;;;;;;5073990;28;20315;-64
2023/04/09 00:08:26;;;;;;;41.67;19.83;;;8.60;99.90;;;;;;5074617;28;20024;-65
2023/04/09 00:10:54;;;;;;;41.33;19.13;;;8.60;99.90;;;;;;5074653;28;20400;-64
2023/04/09 00:13:20;;;;;;;38.67;20.23;;;8.50;99.90;;;;;;5074989;28;20028;-65
2023/04/09 00:15:46;;;;;;;36.97;19.87;;;8.60;99.90;;;;;;5074595;28;20039;-65
2023/04/09 00:18:12;;;;;;;33.77;18.70;;;8.60;99.90;;;;;;5075149;28;20020;-64
2023/04/09 00:20:38;;;;;;;37.90;19.02;;;8.60;99.90;;;;;;5073590;28;20020;-64
2023/04/09 00:23:04;;;;;;;36.87;19.87;;;8.60;99.90;;;;;;5074748;28;20478;-64
2023/04/09 00:25:29;;;;;;;38.57;19.10;;;8.60;99.90;;;;;;5074478;28;20037;-66
2023/04/09 00:27:56;;;;;;;38.03;20.27;;;8.60;99.90;;;;;;5074631;28;20055;-68
2023/04/09 00:30:22;;;;;;;38.08;19.35;;;8.60;99.90;;;;;;5074838;28;20025;-64
2023/04/09 00:32:48;;;;;;;40.37;19.93;;;8.60;99.90;;;;;;5060492;28;20028;-67
2023/04/09 00:35:16;;;;;;;47.13;21.30;;;8.60;99.90;;;;;;5074685;28;20032;-67
2023/04/09 00:37:42;;;;;;;37.40;19.83;;;8.60;99.90;;;;;;5074237;28;20036;-65
2023/04/09 00:40:08;;;;;;;37.17;18.83;;;8.70;99.90;;;;;;5074702;28;20396;-69
2023/04/09 00:42:36;;;;;;;37.95;19.55;;;8.70;99.90;;;;;;5074557;28;20269;-65
2023/04/09 00:45:02;;;;;;;33.75;20.33;;;8.70;99.90;;;;;;5074631;28;20090;-67
2023/04/09 00:47:29;;;;;;;41.35;21.17;;;8.70;99.90;;;;;;5074047;28;20029;-69
2023/04/09 00:49:55;;;;;;;;;;;8.70;99.90;;;;;;5074064;28;20040;-69
2023/04/09 00:52:21;;;;;;;39.65;19.52;;;8.70;99.90;;;;;;5074702;28;19909;-71
2023/04/09 00:54:49;;;;;;;45.33;21.10;;;8.70;99.90;;;;;;5074235;28;20098;-71
2023/04/09 00:57:15;;;;;;;42.25;20.08;;;8.70;99.90;;;;;;5074378;28;20078;-66
2023/04/09 00:59:42;;;;;;;41.00;20.83;;;8.70;99.90;;;;;;5074172;28;20021;-65
2023/04/09 01:02:08;;;;;;;38.83;20.70;;;8.70;99.90;;;;;;5074580;28;20025;-71
2023/04/09 01:04:35;;;;;;;44.77;19.83;;;8.70;99.90;;;;;;5074409;28;20085;-71
2023/04/09 01:07:09;;;;;;;40.75;19.55;;;8.70;99.90;;;;;;5074473;28;20412;-74
2023/04/09 01:09:41;;;;;;;41.28;19.80;;;8.70;99.90;;;;;;5073900;28;20048;-74
2023/04/09 01:12:31;;;;;;;42.92;20.88;;;8.80;99.90;;;;;;5074433;28;20032;-64
2023/04/09 01:15:08;;;;;;;44.53;21.52;;;8.80;99.90;;;;;;5074580;28;20025;-64
2023/04/09 01:17:42;;;;;;;40.95;21.08;;;8.80;99.90;;;;;;5074452;28;20028;-64
2023/04/09 01:20:17;;;;;;;44.95;20.10;;;8.80;99.90;;;;;;5073263;28;20367;-75
2023/04/09 01:23:17;;;;;;;42.40;19.98;;;8.80;99.90;;;;;;5061085;28;20315;-69
2023/04/09 01:25:50;;;;;;;43.85;20.83;;;8.80;99.90;;;;;;5073798;28;20016;-71
2023/04/09 01:28:38;;;;;;;46.92;20.65;;;8.80;99.90;;;;;;5074009;28;20049;-71
2023/04/09 01:31:10;;;;;;;36.50;19.23;;;8.80;99.90;;;;;;5075943;28;20050;-68
2023/04/09 01:33:37;;;;;;;46.97;19.63;;;8.80;99.90;;;;;;5077731;28;20056;-68
2023/04/09 01:36:05;;;;;;;39.55;19.27;;;8.80;99.90;;;;;;5077214;28;20060;-66
2023/04/09 01:38:32;;;;;;;44.70;20.65;;;8.80;99.90;;;;;;5077654;28;20040;-71
2023/04/09 01:41:00;;;;;;;41.33;21.02;;;8.70;99.90;;;;;;5077173;28;20027;-65
2023/04/09 01:43:26;;;;;;;42.42;19.27;;;8.70;99.90;;;;;;5077780;28;20097;-65
2023/04/09 01:45:53;;;;;;;44.65;20.20;;;8.80;99.90;;;;;;5075909;28;20126;-64
2023/04/09 01:48:20;;;;;;;48.28;20.48;;;8.70;99.90;;;;;;5077566;28;20762;-69
2023/04/09 01:50:46;;;;;;;44.95;19.65;;;8.70;99.90;;;;;;5077154;28;20407;-64
2023/04/09 01:53:12;;;;;;;42.60;20.00;;;8.80;99.90;;;;;;5072114;28;20062;-64
2023/04/09 01:55:38;;;;;;;39.60;18.95;;;8.70;99.90;;;;;;5062027;28;20090;-68
2023/04/09 01:58:04;;;;;;;45.07;19.33;;;8.80;99.90;;;;;;5077498;28;20119;-70
2023/04/09 02:00:41;;;;;;;44.57;19.33;;;8.80;99.90;;;;;;5075966;28;20323;-73
2023/04/09 02:03:15;;;;;;;54.00;22.08;;;8.80;99.90;;;;;;5077251;28;20060;-71
2023/04/09 02:05:48;;;;;;;44.60;19.67;;;8.80;99.90;;;;;;5076130;28;20024;-64
2023/04/09 02:08:19;;;;;;;54.97;22.27;;;8.70;99.90;;;;;;5077228;28;20032;-66
2023/04/09 02:10:52;;;;;;;48.63;20.75;;;8.70;99.90;;;;;;5072805;28;20028;-66
2023/04/09 02:13:19;;;;;;;51.08;21.10;;;8.80;99.90;;;;;;5070475;28;20103;-64
2023/04/09 02:15:46;;;;;;;52.22;21.98;;;8.70;99.90;;;;;;5076417;28;20099;-65
2023/04/09 02:18:21;;;;;;;;;;;8.80;99.90;;;;;;5077387;28;20111;-69
2023/04/09 02:20:47;;;;;;;48.67;19.42;;;8.70;99.90;;;;;;5076376;28;19905;-67
2023/04/09 02:23:15;;;;;;;53.43;22.43;;;8.70;99.90;;;;;;5076962;28;20054;-68
2023/04/09 02:25:41;;;;;;;47.20;21.85;;;8.70;99.90;;;;;;5076173;28;20025;-67
2023/04/09 02:28:06;;;;;;;48.23;22.47;;;8.70;99.90;;;;;;5076715;28;20056;-69
2023/04/09 02:30:32;;;;;;;50.60;21.40;;;8.70;99.90;;;;;;5076413;28;20315;-66
2023/04/09 02:32:58;;;;;;;51.20;22.80;;;8.70;99.90;;;;;;5076893;28;20032;-70
2023/04/09 02:35:24;;;;;;;53.23;22.67;;;8.80;99.90;;;;;;5075368;28;20036;-72
2023/04/09 02:37:49;;;;;;;51.73;22.77;;;8.80;99.90;;;;;;5076135;28;20250;-71
2023/04/09 02:40:15;;;;;;;53.63;23.70;;;8.80;99.90;;;;;;5076555;28;20044;-71
2023/04/09 02:42:41;;;;;;;50.30;21.30;;;8.80;99.90;;;;;;5075109;28;20434;-66
2023/04/09 02:45:07;;;;;;;53.60;21.83;;;8.80;99.90;;;;;;5076155;28;20024;-69
2023/04/09 02:47:33;;;;;;;47.90;22.10;;;8.70;99.90;;;;;;5076522;28;20029;-70
2023/04/09 02:49:58;;;;;;;47.17;21.70;;;8.80;99.90;;;;;;5076476;28;20047;-67
2023/04/09 02:52:24;;;;;;;48.57;20.63;;;8.70;99.90;;;;;;5076278;28;20097;-67
2023/04/09 02:54:51;;;;;;;49.63;21.73;;;8.80;99.90;;;;;;5075677;28;20071;-65
2023/04/09 02:57:17;;;;;;;55.67;23.05;;;8.70;99.90;;;;;;5076239;28;20032;-65
2023/04/09 02:59:44;;;;;;;51.37;21.63;;;8.80;99.90;;;;;;5075615;28;20078;-65
2023/04/09 03:02:10;;;;;;;;;;;8.70;99.90;;;;;;5076582;28;20059;-66
2023/04/09 03:04:36;;;;;;;45.67;20.23;;;8.80;99.90;;;;;;5074889;28;19904;-66
2023/04/09 03:07:01;;;;;;;51.37;21.80;;;8.70;99.90;;;;;;5061867;28;20060;-74
2023/04/09 03:09:28;;;;;;;51.13;21.90;;;8.80;99.90;;;;;;5075963;28;20020;-67
2023/04/09 03:11:55;;;;;;;50.35;21.50;;;8.70;99.90;;;;;;5072876;28;20036;-73
2023/04/09 03:14:20;;;;;;;;;;;8.80;99.90;;;;;;5075317;28;20120;-73
2023/04/09 03:16:46;;;;;;;49.77;20.50;;;8.70;99.90;;;;;;5074398;28;19939;-68
2023/04/09 03:19:11;;;;;;;50.47;20.42;;;8.70;99.90;;;;;;5075882;28;20025;-67
2023/04/09 03:21:37;;;;;;;46.60;20.63;;;8.70;99.90;;;;;;5075423;28;20412;-72
2023/04/09 03:24:03;;;;;;;52.10;22.03;;;8.70;99.90;;;;;;5074609;28;20028;-69
2023/04/09 03:26:34;;;;;;;50.73;23.50;;;8.70;99.90;;;;;;5075855;28;20034;-70
2023/04/09 03:29:01;;;;;;;49.58;21.25;;;8.70;99.90;;;;;;5074986;28;20044;-68
2023/04/09 03:31:27;;;;;;;42.70;20.05;;;8.70;99.90;;;;;;5074312;28;20130;-69
2023/04/09 03:33:52;;;;;;;51.97;21.00;;;8.70;99.90;;;;;;5074968;28;20112;-65
2023/04/09 03:36:18;;;;;;;49.97;22.03;;;8.70;99.90;;;;;;5075417;28;20024;-68
2023/04/09 03:38:44;;;;;;;54.37;22.33;;;8.70;99.90;;;;;;5075127;28;20116;-69
2023/04/09 03:41:09;;;;;;;48.17;22.03;;;8.60;99.90;;;;;;5075134;28;20041;-67
2023/04/09 03:43:35;;;;;;;49.83;21.90;;;8.60;99.90;;;;;;5075402;28;20082;-64
2023/04/09 03:46:09;;;;;;;48.53;22.47;;;8.70;99.90;;;;;;5075119;28;20028;-64
2023/04/09 03:48:35;;;;;;;47.45;21.60;;;8.60;99.90;;;;;;5075660;28;20337;-64
2023/04/09 03:51:01;;;;;;;49.87;21.43;;;8.70;99.90;;;;;;5074701;28;20074;-75
2023/04/09 03:53:26;;;;;;;57.57;23.00;;;8.70;99.90;;;;;;5073988;28;20319;-64
2023/04/09 03:55:52;;;;;;;52.40;21.90;;;8.70;99.90;;;;;;5074811;28;20070;-64
2023/04/09 03:58:17;;;;;;;43.83;21.60;;;8.70;99.90;;;;;;5075190;28;20025;-74
2023/04/09 04:00:43;;;;;;;53.23;22.20;;;8.70;99.90;;;;;;5074705;28;20482;-64
2023/04/09 04:03:10;;;;;;;52.60;21.80;;;8.70;99.90;;;;;;5074831;28;20060;-64
2023/04/09 04:05:36;;;;;;;49.78;22.42;;;8.70;99.90;;;;;;5075018;28;20074;-63
2023/04/09 04:08:02;;;;;;;52.87;21.43;;;8.70;99.90;;;;;;5074964;28;20040;-64
2023/04/09 04:10:27;;;;;;;50.47;21.77;;;8.70;99.90;;;;;;5074949;28;20028;-64
2023/04/09 04:12:53;;;;;;;50.47;23.20;;;8.70;99.90;;;;;;5075109;28;20074;-63
2023/04/09 04:15:19;;;;;;;53.50;21.97;;;8.70;99.90;;;;;;5074547;28;20017;-74
2023/04/09 04:17:45;;;;;;;49.80;21.40;;;8.80;99.90;;;;;;5075132;28;20028;-64
2023/04/09 04:20:11;;;;;;;50.15;22.30;;;8.70;99.90;;;;;;5074691;28;20073;-63
2023/04/09 04:22:36;;;;;;;54.15;23.00;;;8.70;99.90;;;;;;5074924;28;20066;-64
2023/04/09 04:25:03;;;;;;;50.50;22.17;;;8.70;99.90;;;;;;5074474;28;20028;-75
2023/04/09 04:27:29;;;;;;;;;;;8.70;99.90;;;;;;5075253;28;20407;-64
2023/04/09 04:29:57;;;;;;;48.93;19.80;;;8.70;99.90;;;;;;5074934;28;19954;-63
2023/04/09 04:32:23;;;;;;;54.40;22.05;;;8.70;99.90;;;;;;5074108;28;20031;-64
2023/04/09 04:34:49;;;;;;;47.13;21.13;;;8.70;99.90;;;;;;5074898;28;20408;-64
2023/04/09 04:37:15;;;;;;;52.43;21.97;;;8.70;99.90;;;;;;5074754;28;21678;-64
2023/04/09 04:39:41;;;;;;;50.40;22.73;;;8.70;99.90;;;;;;5074799;28;20422;-64
2023/04/09 04:42:06;;;;;;;47.40;21.60;;;8.70;99.90;;;;;;5074109;28;20048;-64
2023/04/09 04:44:32;;;;;;;48.37;21.63;;;8.70;99.90;;;;;;5074750;28;20020;-63
2023/04/09 04:46:58;;;;;;;48.20;21.15;;;8.70;99.90;;;;;;5074576;28;20029;-74
2023/04/09 04:49:24;;;;;;;54.30;21.87;;;8.80;99.90;;;;;;5074271;28;20077;-64
2023/04/09 04:51:49;;;;;;;52.27;22.00;;;8.80;99.90;;;;;;5074696;28;20020;-64
2023/04/09 04:54:15;;;;;;;50.50;22.02;;;8.80;99.90;;;;;;5074109;28;20025;-63
2023/04/09 04:56:41;;;;;;;43.30;19.40;;;8.80;99.90;;;;;;5074817;28;20016;-64
2023/04/09 04:59:07;;;;;;;53.80;21.10;;;8.80;99.90;;;;;;5074525;28;20024;-64
2023/04/09 05:01:32;;;;;;;45.73;21.13;;;8.80;99.90;;;;;;5073128;28;20040;-63
2023/04/09 05:03:58;;;;;;;48.60;22.38;;;8.80;99.90;;;;;;5074479;28;20033;-64
2023/04/09 05:06:25;;;;;;;45.03;20.47;;;8.80;99.90;;;;;;5076969;28;20046;-63
2023/04/09 05:08:51;;;;;;;42.00;20.00;;;8.80;99.90;;;;;;5078594;28;20024;-74
2023/04/09 05:11:17;;;;;;;41.03;19.00;;;8.90;99.90;;;;;;5078060;28;20020;-64
2023/04/09 05:13:43;;;;;;;44.03;21.07;;;8.80;99.90;;;;;;5077815;28;20025;-64
2023/04/09 05:16:16;;;;;;;52.10;20.77;;;8.80;99.90;;;;;;5078327;28;20068;-64
2023/04/09 05:18:42;;;;;;;42.83;20.70;;;8.80;99.90;;;;;;5077803;28;20107;-64
2023/04/09 05:21:07;;;;;;;42.80;19.77;;;8.80;99.90;;;;;;5076749;28;20376;-64
2023/04/09 05:23:33;;;;;;;42.60;19.77;;;8.80;99.90;;;;;;5078055;28;20039;-64
2023/04/09 05:25:59;;;;;;;44.97;21.13;;;8.90;99.90;;;;;;5077966;28;20047;-74
2023/04/09 05:28:25;;;;;;;45.57;20.97;;;8.90;99.90;;;;;;5077884;28;20127;-64
2023/04/09 05:30:51;;;;;;;43.77;19.40;;;8.90;99.90;;;;;;5077596;28;20058;-63
2023/04/09 05:33:16;;;;;;;50.83;19.73;;;8.90;99.90;;;;;;5077839;28;20025;-64
2023/04/09 05:35:42;;;;;;;43.77;20.27;;;8.90;99.90;;;;;;5077583;28;20427;-64
2023/04/09 05:38:08;;;;;;;46.23;20.57;;;8.90;99.90;;;;;;5077565;28;20017;-64
2023/04/09 05:40:34;;;;;;;40.87;19.40;;;8.90;99.90;;;;;;5077362;28;20043;-63
2023/04/09 05:43:00;;;;;;;41.45;18.67;;;8.90;99.90;;;;;;5077885;28;20029;-74
2023/04/09 05:45:27;;;;;;;40.70;20.40;;;8.90;99.90;;;;;;5077800;28;20039;-64
2023/04/09 05:47:53;;;;;;;42.08;19.63;;;8.90;99.90;;;;;;5063625;28;20017;-63
2023/04/09 05:50:20;;;;;;;43.42;20.40;;;8.90;99.90;;;;;;5077526;28;20028;-63
2023/04/09 05:52:45;;;;;;;42.13;20.15;;;8.90;99.90;;;;;;5077090;28;20032;-64
2023/04/09 05:55:11;;;;;;;44.87;19.47;;;8.90;99.90;;;;;;5077504;28;20405;-63
2023/04/09 05:57:37;;;;;;;43.40;20.40;;;8.80;99.90;;;;;;5077031;28;20024;-64
2023/04/09 06:00:03;;;;;;;44.37;20.23;;;8.80;99.90;;;;;;5077415;28;20023;-75
2023/04/09 06:02:29;;;;;;;40.38;20.25;;;8.80;99.90;;;;;;5077192;28;20059;-63
2023/04/09 06:04:55;;;;;;;48.47;21.30;;;8.80;99.90;;;;;;5076991;28;20086;-64
2023/04/09 06:07:21;;;;;;;38.27;19.67;;;8.90;99.90;;;;;;5077124;28;20029;-64
2023/04/09 06:09:46;;;;;;;46.27;20.80;;;8.90;99.90;;;;;;5076735;28;20036;-65
2023/04/09 06:12:12;;;;;;;43.23;19.90;;;8.90;99.90;;;;;;5077121;28;20036;-63
2023/04/09 06:14:38;;;;;;;45.17;20.27;;;8.90;99.90;;;;;;5077259;28;20028;-64
2023/04/09 06:17:04;;;;;;;44.28;19.58;;;8.90;99.90;;;;;;5076475;28;20038;-67
2023/04/09 06:19:30;;;;;;;40.90;19.87;;;8.90;99.90;;;;;;5077208;28;20320;-64
2023/04/09 06:21:56;;;;;;;48.03;20.45;;;9.00;99.90;;;;;;5076411;28;20048;-74
2023/04/09 06:24:22;;;;;;;46.83;21.13;;;8.90;99.90;;;;;;5076723;28;20104;-64
2023/04/09 06:26:48;;;;;;;44.97;20.70;;;9.00;99.90;;;;;;5076511;28;20386;-64
2023/04/09 06:29:13;;;;;;;43.13;19.77;;;9.00;99.90;;;;;;5076601;28;20048;-63
2023/04/09 06:31:39;;;;;;;43.33;19.77;;;9.00;99.90;;;;;;5076663;28;20328;-64
2023/04/09 06:34:05;;;;;;;42.70;20.10;;;9.00;99.90;;;;;;5076232;28;20027;-64
2023/04/09 06:36:32;;;;;;;45.23;20.23;;;9.00;99.90;;;;;;5076382;28;20112;-64
2023/04/09 06:38:58;;;;;;;;;;;9.00;99.90;;;;;;5076797;28;20541;-74
2023/04/09 06:41:25;;;;;;;38.67;18.52;;;9.00;99.90;;;;;;5076457;28;20016;-64
2023/04/09 06:43:51;;;;;;;35.95;17.88;;;9.00;99.90;;;;;;5076132;28;20028;-64
2023/04/09 06:46:19;;;;;;;40.80;19.13;;;9.00;99.90;;;;;;5076601;28;20059;-63
2023/04/09 06:48:45;;;;;;;36.65;18.45;;;9.00;99.90;;;;;;5076428;28;20071;-64
2023/04/09 06:51:11;;;;;;;37.33;17.75;;;9.10;99.90;;;;;;5075969;28;20048;-74
2023/04/09 06:53:37;;;;;;;41.38;19.65;;;9.10;99.90;;;;;;5076247;28;20082;-64
2023/04/09 06:56:03;;;;;;;38.35;19.23;;;9.10;99.90;;;;;;5076213;28;20028;-74
2023/04/09 06:58:29;;;;;;;42.47;18.17;;;9.10;99.90;;;;;;5076087;28;20068;-63
2023/04/09 07:00:55;;;;;;;39.35;17.90;;;9.10;99.90;;;;;;5075996;28;20048;-64
2023/04/09 07:03:21;;;;;;;39.03;18.50;;;9.10;99.90;;;;;;5075511;28;20020;-64
2023/04/09 07:05:47;;;;;;;36.50;19.02;;;9.10;99.90;;;;;;5076271;28;20323;-64
2023/04/09 07:08:14;;;;;;;41.13;19.03;;;9.10;99.90;;;;;;5075630;28;20032;-64
2023/04/09 07:10:40;;;;;;;38.45;18.48;;;9.20;99.90;;;;;;5075941;28;20025;-64
2023/04/09 07:13:06;;;;;;;40.13;18.47;;;9.20;99.90;;;;;;5075648;28;20085;-64
2023/04/09 07:15:31;;;;;;;45.50;19.73;;;9.20;99.90;;;;;;5075442;28;20340;-63
2023/04/09 07:17:57;;;;;;;37.93;18.57;;;9.20;99.90;;;;;;5075852;28;20031;-74
2023/04/09 07:20:23;;;;;;;43.23;18.60;;;9.20;99.90;;;;;;5075436;28;20392;-63
2023/04/09 07:22:49;;;;;;;36.30;19.00;;;9.10;99.90;;;;;;5074547;28;20068;-64
2023/04/09 07:25:15;;;;;;;40.47;19.00;;;9.20;99.90;;;;;;5075344;28;20063;-64
2023/04/09 07:27:44;;;;;;;38.05;19.25;;;9.20;99.90;;;;;;5074745;28;20106;-75
2023/04/09 07:30:10;;;;;;;41.42;19.95;;;9.30;99.90;;;;;;5075340;28;20450;-64
2023/04/09 07:32:36;;;;;;;43.60;18.90;;;9.20;99.90;;;;;;5075359;28;20032;-64
2023/04/09 07:35:06;;;;;;;40.35;18.83;;;9.30;99.90;;;;;;5075580;28;20027;-75
2023/04/09 07:37:32;;;;;;;36.05;18.90;;;9.20;99.90;;;;;;5075504;28;20020;-64
2023/04/09 07:39:58;;;;;;;39.93;17.53;;;9.20;99.90;;;;;;5075520;28;20092;-74
2023/04/09 07:42:24;;;;;;;37.77;19.10;;;9.20;99.90;;;;;;5075283;28;20435;-63
2023/04/09 07:44:50;;;;;;;39.72;18.02;;;9.30;99.90;;;;;;5075658;28;20074;-64
2023/04/09 07:47:16;;;;;;;42.67;19.20;;;9.30;99.90;;;;;;5074952;28;20032;-64
2023/04/09 07:49:41;;;;;;;42.77;19.33;;;9.30;99.90;;;;;;5075232;28;20025;-63
2023/04/09 07:52:07;;;;;;;49.20;20.83;;;9.40;99.90;;;;;;5075284;28;20052;-74
2023/04/09 07:54:34;;;;;;;44.03;20.53;;;9.40;99.90;;;;;;5074922;28;20013;-64
2023/04/09 07:57:03;;;;;;;40.40;19.90;;;9.40;99.90;;;;;;5075235;28;20019;-64
2023/04/09 07:59:30;;;;;;;44.15;20.88;;;9.30;99.90;;;;;;5073645;28;20028;-64
2023/04/09 08:01:56;;;;;;;50.30;21.80;;;9.30;99.90;;;;;;5075063;28;20358;-73
2023/04/09 08:04:21;;;;;;;44.97;21.60;;;9.30;99.90;;;;;;5075319;28;20077;-63
2023/04/09 08:06:49;;;;;;;44.90;21.47;;;9.40;99.90;;;;;;5074518;28;20296;-63
2023/04/09 08:09:19;;;;;;;44.00;21.67;;;9.40;99.90;;;;;;5075261;28;20031;-64
2023/04/09 08:11:46;;;;;;;46.35;21.50;;;9.40;99.90;;;;;;5074781;28;20115;-64
2023/04/09 08:14:13;;;;;;;46.60;22.65;;;9.40;99.90;;;;;;5074943;28;20036;-64
2023/04/09 08:16:40;;;;;;;47.92;22.88;;;9.40;99.90;;;;;;5074580;28;20021;-75
2023/04/09 08:19:10;;;;;;;48.20;23.08;;;9.50;99.90;;;;;;5074822;28;20103;-64
2023/04/09 08:21:37;;;;;;;47.03;21.55;;;9.50;99.90;;;;;;5074782;28;20031;-63
2023/04/09 08:24:04;;;;;;;52.10;23.63;;;9.50;99.90;;;;;;5060740;28;20025;-75
2023/04/09 08:26:30;;;;;;;47.78;23.13;;;9.50;99.90;;;;;;5074738;28;20039;-63
2023/04/09 08:28:56;;;;;;;45.10;22.27;;;9.50;99.90;;;;;;5073185;28;20045;-74
2023/04/09 08:31:22;;;;;;;52.63;24.55;;;9.60;99.90;;;;;;5074565;28;20670;-63
2023/04/09 08:33:48;;;;;;;56.27;23.33;;;9.60;99.90;;;;;;5074176;28;20112;-64
2023/04/09 08:36:14;;;;;;;45.27;22.43;;;9.60;99.90;;;;;;5073625;28;20344;-63
2023/04/09 08:38:41;;;;;;;42.17;21.80;;;9.70;99.90;;;;;;5074649;28;20070;-63
2023/04/09 08:41:06;;;;;;;47.88;22.63;;;9.80;99.90;;;;;;5077165;28;20020;-64
2023/04/09 08:43:33;;;;;;;51.78;24.92;;;9.90;99.90;;;;;;5077743;28;20046;-64
2023/04/09 08:46:02;;;;;;;50.85;23.60;;;10.10;99.90;;;;;;5078351;28;20328;-75
2023/04/09 08:48:27;;;;;;;49.72;23.58;;;10.20;99.90;;;;;;5078674;28;20030;-63
2023/04/09 08:50:53;;;;;;;49.50;23.57;;;10.30;99.90;;;;;;5078285;28;20032;-64
2023/04/09 08:53:21;;;;;;;51.07;22.23;;;10.40;99.90;;;;;;5078416;28;20032;-63
2023/04/09 08:55:47;;;;;;;51.15;22.92;;;10.50;99.90;;;;;;5078383;28;20078;-63
2023/04/09 08:58:13;;;;;;;54.13;22.60;;;10.50;99.90;;;;;;5078567;28;20024;-74
2023/04/09 09:00:39;;;;;;;53.60;23.97;;;10.70;99.90;;;;;;5078167;28;20024;-64
2023/04/09 09:03:14;;;;;;;47.72;22.40;;;10.90;99.90;;;;;;5078001;28;20463;-63
2023/04/09 09:05:44;;;;;;;50.15;24.13;;;11.10;99.90;;;;;;5078320;28;20035;-74
2023/04/09 09:08:25;;;;;;;43.60;20.45;;;11.20;99.90;;;;;;5077983;28;20029;-63
2023/04/09 09:10:51;;;;;;;42.70;21.33;;;11.30;99.90;;;;;;5078049;28;20020;-64
2023/04/09 09:13:21;;;;;;;43.17;20.50;;;11.50;99.90;;;;;;5077692;28;20439;-64
2023/04/09 09:15:49;;;;;;;44.35;21.98;;;11.70;99.90;;;;;;5076874;28;20344;-64
2023/04/09 09:18:17;;;;;;;42.67;21.70;;;11.90;99.90;;;;;;5076689;28;20155;-64
2023/04/09 09:20:42;;;;;;;44.95;21.25;;;11.90;99.90;;;;;;5078196;28;20028;-74
2023/04/09 09:23:08;;;;;;;48.03;20.73;;;11.80;99.90;;;;;;5078095;28;20025;-63
2023/04/09 09:25:43;;;;;;;50.33;23.48;;;11.70;99.90;;;;;;5077779;28;20032;-63
2023/04/09 09:28:11;;;;;;;48.95;22.00;;;11.70;99.90;;;;;;5077711;28;20059;-64
2023/04/09 09:30:38;;;;;;;38.03;20.70;;;11.80;99.90;;;;;;5077366;28;20020;-63
2023/04/09 09:33:09;;;;;;;48.33;21.88;;;11.80;99.90;;;;;;5077796;28;20040;-64
2023/04/09 09:35:53;;;;;;;41.60;21.33;;;11.90;99.90;;;;;;5077433;28;20031;-65
2023/04/09 09:38:19;;;;;;;44.10;20.63;;;12.10;99.90;;;;;;5077796;28;20032;-64
2023/04/09 09:40:46;;;;;;;41.63;19.95;;;12.20;99.90;;;;;;5077109;28;20407;-64
2023/04/09 09:43:13;;;;;;;36.63;19.48;;;12.20;99.90;;;;;;5077901;28;20034;-74
2023/04/09 09:45:40;;;;;;;37.30;19.05;;;12.20;99.90;;;;;;5077146;28;20037;-65
2023/04/09 09:48:06;;;;;;;38.75;19.00;;;12.20;99.90;;;;;;5076546;28;20055;-63
2023/04/09 09:50:35;;;;;;;36.15;19.42;;;12.20;99.90;;;;;;5076862;28;20082;-75
2023/04/09 09:53:06;;;;;;;38.80;19.92;;;12.10;99.90;;;;;;5077360;28;20020;-75
2023/04/09 09:55:33;;;;;;;37.58;18.60;;;12.20;99.90;;;;;;5077433;28;20021;-64
2023/04/09 09:58:03;;;;;;;42.38;19.58;;;12.30;99.90;;;;;;5077111;28;20036;-64
2023/04/09 10:00:31;;;;;;;39.05;19.45;;;12.40;99.90;;;;;;5077185;28;20605;-64
2023/04/09 10:03:10;;;;;;;41.20;19.35;;;12.40;99.90;;;;;;5076648;28;20029;-74
2023/04/09 10:05:38;;;;;;;40.13;19.35;;;12.40;99.90;;;;;;5077251;28;20036;-63
2023/04/09 10:08:04;;;;;;;40.75;19.42;;;12.40;99.90;;;;;;5076874;28;20017;-64
2023/04/09 10:10:32;;;;;;;40.40;19.30;;;12.30;99.90;;;;;;5077430;28;20111;-64
2023/04/09 10:12:58;;;;;;;37.70;19.67;;;12.30;99.90;;;;;;5076735;28;20727;-64
2023/04/09 10:15:25;;;;;;;36.33;19.10;;;12.40;99.90;;;;;;5076738;28;20020;-64
2023/04/09 10:17:50;;;;;;;;;;;12.60;99.90;;;;;;5077954;28;20337;-64
2023/04/09 10:20:27;;;;;;;36.03;18.43;;;12.70;99.90;;;;;;5076818;28;19904;-64
2023/04/09 10:22:55;;;;;;;39.22;18.50;;;12.70;99.90;;;;;;5076919;28;20272;-64
2023/04/09 10:25:21;;;;;;;44.83;20.25;;;12.80;99.90;;;;;;5076375;28;20024;-64
2023/04/09 10:27:59;;;;;;;39.15;19.98;;;12.70;99.90;;;;;;5076677;28;20471;-75
2023/04/09 10:30:32;;;;;;;36.42;20.30;;;12.80;99.90;;;;;;5076607;28;20048;-64
2023/04/09 10:33:15;;;;;;;38.90;19.83;;;13.00;99.90;;;;;;5076995;28;20123;-64
2023/04/09 10:35:42;;;;;;;35.28;19.13;;;13.20;99.90;;;;;;5076114;28;20020;-64
2023/04/09 10:38:09;;;;;;;38.05;19.40;;;13.30;99.90;;;;;;5076673;28;20016;-64
2023/04/09 10:40:57;;;;;;;38.53;19.20;;;13.80;99.90;;;;;;5072563;28;20419;-75
2023/04/09 10:43:23;;;;;;;39.78;19.98;;;14.30;99.90;;;;;;5075951;28;20032;-64
2023/04/09 10:45:53;;;;;;;34.97;19.50;;;14.50;99.90;;;;;;5075661;28;20029;-65
2023/04/09 10:48:20;;;;;;;32.50;20.00;;;14.70;99.90;;;;;;5076389;28;20024;-65
2023/04/09 10:50:51;;;;;;;36.75;19.95;;;14.80;99.90;;;;;;5075846;28;20111;-65
2023/04/09 10:53:24;;;;;;;36.58;20.00;;;14.80;99.90;;;;;;5076412;28;20056;-65
2023/04/09 10:55:52;;;;;;;41.42;21.83;;;14.60;99.90;;;;;;5074692;28;20029;-64
2023/04/09 10:58:18;;;;;;;36.70;20.75;;;14.20;99.90;;;;;;5076277;28;20020;-64
2023/04/09 11:00:49;;;;;;;39.63;19.33;;;14.00;99.90;;;;;;5075794;28;20300;-64
2023/04/09 11:03:34;;;;;;;40.95;19.98;;;13.80;99.90;;;;;;5073724;28;20265;-64
2023/04/09 11:06:06;;;;;;;35.55;19.02;;;13.60;99.90;;;;;;5076011;28;20039;-76
2023/04/09 11:08:32;;;;;;;38.75;20.27;;;13.40;99.90;;;;;;5075616;28;20400;-64
2023/04/09 11:11:00;;;;;;;36.63;20.70;;;13.50;99.90;;;;;;5075954;28;20108;-64
2023/04/09 11:13:26;;;;;;;42.47;21.08;;;13.20;99.90;;;;;;5075421;28;20024;-74
2023/04/09 11:15:53;;;;;;;42.03;21.58;;;13.20;99.90;;;;;;5075805;28;20017;-75
2023/04/09 11:18:27;;;;;;;39.13;20.90;;;13.40;99.90;;;;;;5075450;28;20103;-64
2023/04/09 11:21:00;;;;;;;42.67;20.35;;;13.60;99.90;;;;;;5075867;28;20021;-64
2023/04/09 11:23:26;;;;;;;37.13;21.20;;;13.90;99.90;;;;;;5075436;28;20028;-65
2023/04/09 11:25:54;;;;;;;39.20;20.77;;;14.00;99.90;;;;;;5075740;28;20358;-64
2023/04/09 11:28:20;;;;;;;41.53;21.50;;;14.00;99.90;;;;;;5075650;28;20044;-64
2023/04/09 11:30:46;;;;;;;37.88;21.05;;;14.00;99.90;;;;;;5075274;28;20338;-65
2023/04/09 11:33:12;;;;;;;34.80;20.90;;;14.20;99.90;;;;;;5075927;28;20292;-65
2023/04/09 11:35:38;;;;;;;43.78;19.85;;;14.80;99.90;;;;;;5075307;28;20398;-65
2023/04/09 11:38:11;;;;;;;41.03;21.37;;;14.40;99.90;;;;;;5074544;28;20216;-76
2023/04/09 11:40:50;;;;;;;37.17;19.92;;;14.40;99.90;;;;;;5075149;28;20025;-65
2023/04/09 11:43:16;;;;;;;40.22;22.10;;;13.60;99.90;;;;;;5075650;28;20102;-65
2023/04/09 11:45:43;;;;;;;40.33;20.35;;;13.00;99.90;;;;;;5075033;28;20029;-77
2023/04/09 11:48:09;;;;;;;37.15;20.20;;;12.80;99.90;;;;;;5075366;28;20033;-64
2023/04/09 11:50:36;;;;;;;36.20;19.00;;;12.60;99.90;;;;;;5074740;28;20024;-64
2023/04/09 11:53:21;;;;;;;41.28;20.38;;;12.50;99.90;;;;;;5075317;28;20029;-64
2023/04/09 11:55:50;;;;;;;38.38;20.27;;;12.70;99.90;;;;;;5074649;28;20020;-64
2023/04/09 11:58:16;;;;;;;37.63;19.98;;;12.80;99.90;;;;;;5075468;28;20021;-64
2023/04/09 12:00:42;;;;;;;38.67;20.60;;;12.60;99.90;;;;;;5075177;28;20020;-63
2023/04/09 12:03:10;;;;;;;42.17;19.90;;;13.00;99.90;;;;;;5074643;28;20043;-64
2023/04/09 12:05:36;;;;;;;40.88;19.08;;;12.90;99.90;;;;;;5075034;28;20052;-64
2023/04/09 12:08:07;;;;;;;38.73;17.37;;;13.10;99.90;;;;;;5074574;28;20064;-76
2023/04/09 12:10:36;;;;;;;36.78;19.58;;;13.10;99.90;;;;;;5075133;28;20017;-64
2023/04/09 12:13:09;;;;;;;40.28;20.98;;;13.00;99.90;;;;;;5074872;28;20410;-78
2023/04/09 12:15:42;;;;;;;39.92;19.95;;;12.80;99.90;;;;;;5074889;28;20020;-70
2023/04/09 12:18:12;;;;;;;39.20;20.83;;;12.70;99.90;;;;;;5074738;28;20415;-64
2023/04/09 12:20:43;;;;;;;39.30;19.42;;;12.80;99.90;;;;;;5074911;28;20024;-64
2023/04/09 12:23:09;;;;;;;42.72;21.70;;;12.60;99.90;;;;;;5074979;28;20016;-65
2023/04/09 12:25:39;;;;;;;39.88;19.05;;;12.40;99.90;;;;;;5074391;28;20044;-64
2023/04/09 12:28:07;;;;;;;39.05;18.98;;;12.30;99.90;;;;;;5074576;28;20074;-65
2023/04/09 12:30:33;;;;;;;41.65;19.08;;;12.20;99.90;;;;;;5074767;28;20099;-77
2023/04/09 12:32:59;;;;;;;41.25;20.83;;;12.30;99.90;;;;;;5074690;28;20036;-75
2023/04/09 12:35:25;;;;;;;37.38;19.95;;;12.20;99.90;;;;;;5072647;28;20043;-64
2023/04/09 12:37:51;;;;;;;42.78;21.05;;;12.10;99.90;;;;;;5074165;28;20054;-64